Time;durP1;ratioP1;P1;durP2;ratioP2;P2;SDS_P1;SDS_P2;PMS_P1;PMS_P2;Temp;Humidity;BMP_temperature;BMP_pressure;BME280_temperature;BME280_humidity;BME280_pressure;Samples;Min_cycle;Max_cycle;Signal;HPM_P1;HPM_P2
2022/10/28 00:00:07;;;;;;;;;;;19.90;99.90;;;;;;5025653;28;19940;-59
2022/10/28 00:02:35;;;;;;;;;;;19.90;99.90;;;;;;5026555;28;20459;-54
2022/10/28 00:05:02;;;;;;;;;;;19.90;99.90;;;;;;5033205;28;19944;-56
2022/10/28 00:07:29;;;;;;;;;;;19.80;99.90;;;;;;5029441;28;19921;-58
2022/10/28 00:09:56;;;;;;;;;;;19.80;99.90;;;;;;5035215;28;19925;-58
2022/10/28 00:12:23;;;;;;;;;;;19.80;99.90;;;;;;5039292;28;19921;-61
2022/10/28 00:14:50;;;;;;;;;;;19.90;99.90;;;;;;5045909;28;19921;-61
2022/10/28 00:17:17;;;;;;;;;;;19.90;99.90;;;;;;5042454;28;19925;-57
2022/10/28 00:19:45;;;;;;;;;;;19.80;99.90;;;;;;5045828;28;19921;-61
2022/10/28 00:22:13;;;;;;;;;;;19.80;99.90;;;;;;5030883;28;19929;-59
2022/10/28 00:24:40;;;;;;;;;;;19.80;99.90;;;;;;5031279;28;19932;-59
2022/10/28 00:27:07;;;;;;;;;;;19.80;99.90;;;;;;5030978;28;19940;-59
2022/10/28 00:29:34;;;;;;;;;;;19.80;99.90;;;;;;5034044;28;20196;-60
2022/10/28 00:32:01;;;;;;;;;;;19.80;99.90;;;;;;5029520;28;19940;-59
2022/10/28 00:34:28;;;;;;;;;;;19.80;99.90;;;;;;5016437;28;19928;-57
2022/10/28 00:36:55;;;;;;;;;;;19.80;99.90;;;;;;5027139;28;19932;-61
2022/10/28 00:39:23;;;;;;;;;;;19.80;99.90;;;;;;5014558;28;19929;-58
2022/10/28 00:41:51;;;;;;;;;;;19.80;99.90;;;;;;5031995;28;20023;-57
2022/10/28 00:44:37;;;;;;;;;;;19.80;99.90;;;;;;5032876;28;19925;-56
2022/10/28 00:47:27;;;;;;;;;;;19.80;99.90;;;;;;5035657;28;19928;-59
2022/10/28 00:49:57;;;;;;;;;;;19.80;99.90;;;;;;5026756;28;20344;-59
2022/10/28 00:52:27;;;;;;;;;;;19.70;99.90;;;;;;5031712;28;19932;-57
2022/10/28 00:54:55;;;;;;;;;;;19.80;99.90;;;;;;5032350;28;20118;-57
2022/10/28 00:57:25;;;;;;;;;;;19.80;99.90;;;;;;5029081;28;19937;-58
2022/10/28 00:59:53;;;;;;;;;;;19.70;99.90;;;;;;5030140;28;20326;-57
2022/10/28 01:02:20;;;;;;;;;;;19.70;99.90;;;;;;5011466;28;20304;-55
2022/10/28 01:04:48;;;;;;;;;;;19.80;99.90;;;;;;5011688;28;19929;-56
2022/10/28 01:07:16;;;;;;;;;;;19.70;99.90;;;;;;5010717;28;19921;-56
2022/10/28 01:09:43;;;;;;;;;;;19.70;99.90;;;;;;5031477;28;19929;-55
2022/10/28 01:12:13;;;;;;;;;;;19.70;99.90;;;;;;5028169;28;19921;-57
2022/10/28 01:14:46;;;;;;;;;;;19.70;99.90;;;;;;5028605;28;19921;-59
2022/10/28 01:17:13;;;;;;;;;;;19.70;99.90;;;;;;5034198;28;20474;-54
2022/10/28 01:19:46;;;;;;;;;;;19.70;99.90;;;;;;5046243;28;19932;-56
2022/10/28 01:22:22;;;;;;;;;;;19.80;99.90;;;;;;5039982;28;19948;-55
2022/10/28 01:25:08;;;;;;;;;;;19.80;99.90;;;;;;5031933;28;19925;-58
2022/10/28 01:27:35;;;;;;;;;;;19.80;99.90;;;;;;5037035;28;19931;-58
2022/10/28 01:30:09;;;;;;;;;;;19.80;99.90;;;;;;5033394;28;19928;-60
2022/10/28 01:32:45;;;;;;;;;;;19.80;99.90;;;;;;5024410;28;19925;-56
2022/10/28 01:35:15;;;;;;;;;;;19.70;99.90;;;;;;5011541;28;19932;-58
2022/10/28 01:37:48;;;;;;;;;;;19.70;99.90;;;;;;5028958;28;19925;-58
2022/10/28 01:40:23;;;;;;;;;;;19.70;99.90;;;;;;5027931;28;19921;-57
2022/10/28 01:42:53;;;;;;;;;;;19.70;99.90;;;;;;5028126;28;19932;-57
2022/10/28 01:45:33;;;;;;;;;;;19.70;99.90;;;;;;5031531;28;19932;-60
2022/10/28 01:48:01;;;;;;;;;;;19.70;99.90;;;;;;5007127;28;19940;-60
2022/10/28 01:50:28;;;;;;;;;;;19.70;99.90;;;;;;5027091;28;19940;-56
2022/10/28 01:52:56;;;;;;;;;;;19.70;99.90;;;;;;5015686;28;19930;-58
2022/10/28 01:55:29;;;;;;;;;;;19.70;99.90;;;;;;5029863;28;20300;-56
2022/10/28 01:57:57;;;;;;;;;;;19.70;99.90;;;;;;5006511;28;19925;-55
2022/10/28 02:00:25;;;;;;;;;;;19.70;99.90;;;;;;5026998;28;19921;-56
2022/10/28 02:02:54;;;;;;;;;;;19.70;99.90;;;;;;5028707;28;19929;-56
2022/10/28 02:05:37;;;;;;;;;;;19.70;99.90;;;;;;5026795;28;19921;-57
2022/10/28 02:08:16;;;;;;;;;;;19.70;99.90;;;;;;5029121;28;19921;-58
2022/10/28 02:11:02;;;;;;;;;;;19.70;99.90;;;;;;5040763;28;20397;-56
2022/10/28 02:13:35;;;;;;;;;;;19.70;99.90;;;;;;5027421;28;19925;-56
2022/10/28 02:16:11;;;;;;;;;;;19.60;99.90;;;;;;5035259;28;19925;-59
2022/10/28 02:18:48;;;;;;;;;;;19.60;99.90;;;;;;5027391;28;19932;-58
2022/10/28 02:21:23;;;;;;;;;;;19.70;99.90;;;;;;5039162;28;19921;-58
2022/10/28 02:23:59;;;;;;;;;;;19.70;99.90;;;;;;5032703;28;19924;-61
2022/10/28 02:26:33;;;;;;;;;;;19.70;99.90;;;;;;5035231;28;20416;-59
2022/10/28 02:29:03;;;;;;;;;;;19.70;99.90;;;;;;5042113;28;19921;-63
2022/10/28 02:31:30;;;;;;;;;;;19.70;99.90;;;;;;5040299;28;20388;-59
2022/10/28 02:33:59;;;;;;;;;;;19.70;99.90;;;;;;5035997;28;19925;-63
2022/10/28 02:36:29;;;;;;;;;;;19.70;99.90;;;;;;5034360;28;19928;-58
2022/10/28 02:38:57;;;;;;;;;;;19.70;99.90;;;;;;5028819;28;19924;-58
2022/10/28 02:41:26;;;;;;;;;;;19.70;99.90;;;;;;5027283;28;19925;-57
2022/10/28 02:43:56;;;;;;;;;;;19.70;99.90;;;;;;5028387;28;20424;-58
2022/10/28 02:46:25;;;;;;;;;;;19.70;99.90;;;;;;5032740;28;19921;-57
2022/10/28 02:48:55;;;;;;;;;;;19.70;99.90;;;;;;5026961;28;19924;-58
2022/10/28 02:51:43;;;;;;;;;;;19.70;99.90;;;;;;5029367;28;19924;-56
2022/10/28 02:54:14;;;;;;;;;;;19.70;99.90;;;;;;5019991;28;19921;-59
2022/10/28 02:56:47;;;;;;;;;;;19.70;99.90;;;;;;5012418;28;20316;-56
2022/10/28 02:59:14;;;;;;;;;;;19.60;99.90;;;;;;5013157;28;19928;-56
2022/10/28 03:01:41;;;;;;;;;;;19.60;99.90;;;;;;5030114;28;19932;-59
2022/10/28 03:04:08;;;;;;;;;;;19.60;99.90;;;;;;5028637;28;20411;-54
2022/10/28 03:06:35;;;;;;;;;;;19.60;99.90;;;;;;5031127;28;20389;-57
2022/10/28 03:09:02;;;;;;;;;;;19.60;99.90;;;;;;5034934;28;19925;-57
2022/10/28 03:11:30;;;;;;;;;;;19.60;99.90;;;;;;5026688;28;19932;-54
2022/10/28 03:13:57;;;;;;;;;;;19.60;99.90;;;;;;5027774;28;20396;-54
2022/10/28 03:16:25;;;;;;;;;;;19.60;99.90;;;;;;5031736;28;20415;-59
2022/10/28 03:18:52;;;;;;;;;;;19.60;99.90;;;;;;5027238;28;19932;-59
2022/10/28 03:21:19;;;;;;;;;;;19.60;99.90;;;;;;5026787;28;19940;-58
2022/10/28 03:23:46;;;;;;;;;;;19.60;99.90;;;;;;5009882;28;19943;-59
2022/10/28 03:26:13;;;;;;;;;;;19.60;99.90;;;;;;5026121;28;19932;-54
2022/10/28 03:28:40;;;;;;;;;;;19.60;99.90;;;;;;5026432;28;19925;-56
2022/10/28 03:31:07;;;;;;;;;;;19.60;99.90;;;;;;5035308;28;19948;-58
2022/10/28 03:33:34;;;;;;;;;;;19.60;99.90;;;;;;5025997;28;19928;-61
2022/10/28 03:36:01;;;;;;;;;;;19.60;99.90;;;;;;5029115;28;19921;-59
2022/10/28 03:38:28;;;;;;;;;;;19.60;99.90;;;;;;5025598;28;19944;-59
2022/10/28 03:40:56;;;;;;;;;;;19.60;99.90;;;;;;5029576;28;19925;-55
2022/10/28 03:43:23;;;;;;;;;;;19.60;99.90;;;;;;5029376;28;19932;-56
2022/10/28 03:45:50;;;;;;;;;;;19.60;99.90;;;;;;5045583;28;19921;-57
2022/10/28 03:48:17;;;;;;;;;;;19.60;99.90;;;;;;5044204;28;19921;-58
2022/10/28 03:50:44;;;;;;;;;;;19.60;99.90;;;;;;5038994;28;19932;-54
2022/10/28 03:53:11;;;;;;;;;;;19.60;99.90;;;;;;5037603;28;19931;-57
2022/10/28 03:55:38;;;;;;;;;;;19.50;99.90;;;;;;5047486;28;20377;-58
2022/10/28 03:58:05;;;;;;;;;;;19.60;99.90;;;;;;5035341;28;20377;-60
2022/10/28 04:00:32;;;;;;;;;;;19.60;99.90;;;;;;5015062;28;20416;-58
2022/10/28 04:02:59;;;;;;;;;;;19.60;99.90;;;;;;5034647;28;19925;-57
2022/10/28 04:05:26;;;;;;;;;;;19.60;99.90;;;;;;5032119;28;19954;-58
2022/10/28 04:07:53;;;;;;;;;;;19.70;99.90;;;;;;5033165;28;19932;-58
2022/10/28 04:10:21;;;;;;;;;;;19.60;99.90;;;;;;5032052;28;19925;-59
2022/10/28 04:12:48;;;;;;;;;;;19.70;99.90;;;;;;5011285;28;20392;-58
2022/10/28 04:15:15;;;;;;;;;;;19.60;99.90;;;;;;5009777;28;19925;-59
2022/10/28 04:17:42;;;;;;;;;;;19.70;99.90;;;;;;5028770;28;19947;-57
2022/10/28 04:20:09;;;;;;;;;;;19.70;99.90;;;;;;5026345;28;19936;-55
2022/10/28 04:22:36;;;;;;;;;;;19.70;99.90;;;;;;5028165;28;19921;-60
2022/10/28 04:25:04;;;;;;;;;;;19.70;99.90;;;;;;5026584;28;19921;-59
2022/10/28 04:27:31;;;;;;;;;;;19.70;99.90;;;;;;5018277;28;19925;-59
2022/10/28 04:29:58;;;;;;;;;;;19.70;99.90;;;;;;5027954;28;19975;-59
2022/10/28 04:32:25;;;;;;;;;;;19.80;99.90;;;;;;5038247;28;19924;-60
2022/10/28 04:34:52;;;;;;;;;;;19.80;99.90;;;;;;5038781;28;20250;-59
2022/10/28 04:37:19;;;;;;;;;;;19.80;99.90;;;;;;5041111;28;19932;-59
2022/10/28 04:39:47;;;;;;;;;;;19.80;99.90;;;;;;5043505;28;20309;-60
2022/10/28 04:42:14;;;;;;;;;;;19.80;99.90;;;;;;5016805;28;19921;-60
2022/10/28 04:44:41;;;;;;;;;;;19.80;99.90;;;;;;5024573;28;19925;-61
2022/10/28 04:47:08;;;;;;;;;;;19.80;99.90;;;;;;5027317;28;19931;-58
2022/10/28 04:49:35;;;;;;;;;;;19.80;99.90;;;;;;5028561;28;20765;-61
2022/10/28 04:52:05;;;;;;;;;;;19.80;99.90;;;;;;5020586;28;19947;-59
2022/10/28 04:54:32;;;;;;;;;;;19.80;99.90;;;;;;5028046;28;19932;-62
2022/10/28 04:56:59;;;;;;;;;;;19.80;99.90;;;;;;5010782;28;20297;-60
2022/10/28 04:59:26;;;;;;;;;;;19.80;99.90;;;;;;5026623;28;20315;-60
2022/10/28 05:01:53;;;;;;;;;;;19.80;99.90;;;;;;5033838;28;20321;-61
2022/10/28 05:04:20;;;;;;;;;;;19.90;99.90;;;;;;5030060;28;20395;-60
2022/10/28 05:06:47;;;;;;;;;;;19.80;99.90;;;;;;5036968;28;20391;-60
2022/10/28 05:09:14;;;;;;;;;;;19.80;99.90;;;;;;5034039;28;20431;-62
2022/10/28 05:11:42;;;;;;;;;;;19.90;99.90;;;;;;5035686;28;19924;-62
2022/10/28 05:14:09;;;;;;;;;;;20.00;99.90;;;;;;5009821;28;19932;-63
2022/10/28 05:16:36;;;;;;;;;;;20.10;99.90;;;;;;5005518;28;19925;-66
2022/10/28 05:19:03;;;;;;;;;;;20.20;99.90;;;;;;5027300;28;19933;-64
2022/10/28 05:21:30;;;;;;;;;;;20.30;99.90;;;;;;5011644;28;19921;-64
2022/10/28 05:23:57;;;;;;;;;;;20.50;99.90;;;;;;5025895;28;20098;-61
2022/10/28 05:26:24;;;;;;;;;;;20.60;99.90;;;;;;5012095;28;19921;-61
2022/10/28 05:28:51;;;;;;;;;;;20.70;99.90;;;;;;5027083;28;19928;-59
2022/10/28 05:31:18;;;;;;;;;;;20.70;99.90;;;;;;5023118;28;19955;-63
2022/10/28 05:33:45;;;;;;;;;;;20.80;99.90;;;;;;5025510;28;20312;-61
2022/10/28 05:36:12;;;;;;;;;;;20.80;99.90;;;;;;5026990;28;20577;-61
2022/10/28 05:38:44;;;;;;;;;;;20.80;99.90;;;;;;5026473;28;19921;-59
2022/10/28 05:41:11;;;;;;;;;;;20.90;99.90;;;;;;5023384;28;19925;-60
2022/10/28 05:43:38;;;;;;;;;;;20.80;99.90;;;;;;5030082;28;19924;-58
2022/10/28 05:46:05;;;;;;;;;;;20.90;99.90;;;;;;5025681;28;19929;-61
2022/10/28 05:48:33;;;;;;;;;;;20.90;99.90;;;;;;5028283;28;19931;-59
2022/10/28 05:51:00;;;;;;;;;;;20.80;99.90;;;;;;5026950;28;19925;-58
2022/10/28 05:53:27;;;;;;;;;;;20.80;99.90;;;;;;5049012;22;19924;-65
2022/10/28 05:55:54;;;;;;;;;;;20.80;99.90;;;;;;5007897;28;21360;-65
2022/10/28 05:58:22;;;;;;;;;;;20.80;99.90;;;;;;5004417;28;19929;-62
2022/10/28 06:00:49;;;;;;;;;;;20.80;99.90;;;;;;5025423;28;19925;-62
2022/10/28 06:03:16;;;;;;;;;;;20.80;99.90;;;;;;5022152;28;19925;-65
2022/10/28 06:05:44;;;;;;;;;;;20.70;99.90;;;;;;5006353;28;19927;-62
2022/10/28 06:08:12;;;;;;;;;;;20.80;99.90;;;;;;5023525;28;20324;-63
2022/10/28 06:10:39;;;;;;;;;;;20.70;99.90;;;;;;5026363;28;20384;-61
2022/10/28 06:13:07;;;;;;;;;;;20.70;99.90;;;;;;5026211;28;19925;-61
2022/10/28 06:15:34;;;;;;;;;;;20.70;99.90;;;;;;5019117;28;19920;-63
2022/10/28 06:18:01;;;;;;;;;;;20.70;99.90;;;;;;5007069;28;19921;-62
2022/10/28 06:20:28;;;;;;;;;;;20.70;99.90;;;;;;5026313;28;20340;-63
2022/10/28 06:22:56;;;;;;;;;;;20.70;99.90;;;;;;5030299;28;19932;-64
2022/10/28 06:25:24;;;;;;;;;;;20.60;99.90;;;;;;5027172;28;20355;-61
2022/10/28 06:27:54;;;;;;;;;;;20.60;99.90;;;;;;5033035;28;19929;-62
2022/10/28 06:30:23;;;;;;;;;;;20.60;99.90;;;;;;5027485;28;19935;-61
2022/10/28 06:32:50;;;;;;;;;;;20.60;99.90;;;;;;5009484;28;19932;-63
2022/10/28 06:35:18;;;;;;;;;;;20.60;99.90;;;;;;5028442;28;19936;-62
2022/10/28 06:37:45;;;;;;;;;;;20.60;99.90;;;;;;5031226;28;20408;-62
2022/10/28 06:40:12;;;;;;;;;;;20.60;99.90;;;;;;5035824;28;19932;-62
2022/10/28 06:42:39;;;;;;;;;;;20.60;99.90;;;;;;5030664;28;19953;-63
2022/10/28 06:45:06;;;;;;;;;;;20.50;99.90;;;;;;5033670;28;19933;-62
2022/10/28 06:47:34;;;;;;;;;;;20.50;99.90;;;;;;5024646;28;19929;-64
2022/10/28 06:50:07;;;;;;;;;;;20.50;99.90;;;;;;5026982;28;19925;-62
2022/10/28 06:52:34;;;;;;;;;;;20.50;99.90;;;;;;5023094;28;19928;-62
2022/10/28 06:55:01;;;;;;;;;;;20.50;99.90;;;;;;5017286;28;19925;-59
2022/10/28 06:57:29;;;;;;;;;;;20.50;99.90;;;;;;5020764;28;19929;-60
2022/10/28 06:59:56;;;;;;;;;;;20.60;99.90;;;;;;5018978;28;20705;-61
2022/10/28 07:02:24;;;;;;;;;;;20.60;99.90;;;;;;5022984;28;19925;-60
2022/10/28 07:04:51;;;;;;;;;;;20.60;99.90;;;;;;5022571;28;19925;-59
2022/10/28 07:07:18;;;;;;;;;;;20.60;99.90;;;;;;5020159;28;21082;-62
2022/10/28 07:09:45;;;;;;;;;;;20.50;99.90;;;;;;5018789;28;19932;-63
2022/10/28 07:12:12;;;;;;;;;;;20.50;99.90;;;;;;5021419;28;19932;-62
2022/10/28 07:14:39;;;;;;;;;;;20.50;99.90;;;;;;5010690;28;19925;-62
2022/10/28 07:17:06;;;;;;;;;;;20.50;99.90;;;;;;5026728;28;20412;-61
2022/10/28 07:19:34;;;;;;;;;;;20.50;99.90;;;;;;5010066;28;19931;-62
2022/10/28 07:22:01;;;;;;;;;;;20.50;99.90;;;;;;5023452;28;19921;-63
2022/10/28 07:24:28;;;;;;;;;;;20.50;99.90;;;;;;5028323;28;20329;-60
2022/10/28 07:26:55;;;;;;;;;;;20.60;99.90;;;;;;5023729;28;19929;-63
2022/10/28 07:29:23;;;;;;;;;;;20.60;99.90;;;;;;5023943;28;19929;-58
2022/10/28 07:31:52;;;;;;;;;;;20.40;99.90;;;;;;5028870;28;19954;-59
2022/10/28 07:34:20;;;;;;;;;;;20.10;99.90;;;;;;5024538;28;19928;-61
2022/10/28 07:36:54;;;;;;;;;;;19.80;99.90;;;;;;5019726;28;19952;-61
2022/10/28 07:39:21;;;;;;;;;;;19.60;99.90;;;;;;5024628;28;19925;-64
2022/10/28 07:41:48;;;;;;;;;;;19.70;99.90;;;;;;5026046;28;20400;-62
2022/10/28 07:44:15;;;;;;;;;;;19.80;99.90;;;;;;5005242;28;19921;-64
2022/10/28 07:46:42;;;;;;;;;;;20.00;99.90;;;;;;5023986;28;19925;-61
2022/10/28 07:49:09;;;;;;;;;;;20.00;99.90;;;;;;5006296;28;20327;-65
2022/10/28 07:51:36;;;;;;;;;;;20.10;99.90;;;;;;5025297;28;20765;-62
2022/10/28 07:54:04;;;;;;;;;;;20.10;99.90;;;;;;5026862;28;20293;-61
2022/10/28 07:56:31;;;;;;;;;;;20.20;99.90;;;;;;5026203;28;19921;-60
2022/10/28 07:58:59;;;;;;;;;;;20.20;99.90;;;;;;5023691;28;19925;-62
2022/10/28 08:01:26;;;;;;;;;;;20.20;99.90;;;;;;5026058;28;19929;-63
2022/10/28 08:03:54;;;;;;;;;;;20.30;99.90;;;;;;5027297;28;19932;-61
2022/10/28 08:06:21;;;;;;;;;;;20.30;99.90;;;;;;5028485;28;20436;-59
2022/10/28 08:08:52;;;;;;;;;;;20.40;99.90;;;;;;5025931;28;19929;-61
2022/10/28 08:11:23;;;;;;;;;;;20.40;99.90;;;;;;5010180;28;19940;-59
2022/10/28 08:13:51;;;;;;;;;;;20.50;99.90;;;;;;5025715;28;20389;-58
2022/10/28 08:16:18;;;;;;;;;;;20.50;99.90;;;;;;5023664;28;19932;-56
2022/10/28 08:18:45;;;;;;;;;;;20.60;99.90;;;;;;5024712;28;19929;-61
2022/10/28 08:21:13;;;;;;;;;;;20.70;99.90;;;;;;5026077;28;19928;-60
2022/10/28 08:23:45;;;;;;;;;;;20.70;99.90;;;;;;5025352;28;19932;-59
2022/10/28 08:26:13;;;;;;;;;;;20.70;99.90;;;;;;5025235;28;19929;-60
2022/10/28 08:28:40;;;;;;;;;;;20.70;99.90;;;;;;5024615;28;19921;-59
2022/10/28 08:31:08;;;;;;;;;;;20.70;99.90;;;;;;5028253;28;20315;-62
2022/10/28 08:33:37;;;;;;;;;;;20.70;99.90;;;;;;5019512;28;19925;-58
2022/10/28 08:36:05;;;;;;;;;;;20.70;99.90;;;;;;5021145;28;19929;-60
2022/10/28 08:38:32;;;;;;;;;;;20.70;99.90;;;;;;5022794;28;19944;-57
2022/10/28 08:41:07;;;;;;;;;;;20.80;99.90;;;;;;5024669;28;20467;-62
2022/10/28 08:43:52;;;;;;;;;;;20.70;99.90;;;;;;5010687;28;19929;-64
2022/10/28 08:46:35;;;;;;;;;;;20.70;99.90;;;;;;5026091;28;19928;-59
2022/10/28 08:49:06;;;;;;;;;;;20.70;99.90;;;;;;5023385;28;19925;-60
2022/10/28 08:51:42;;;;;;;;;;;20.70;99.90;;;;;;5008746;28;19928;-60
2022/10/28 08:54:13;;;;;;;;;;;20.70;99.90;;;;;;5003936;28;19921;-60
2022/10/28 08:56:47;;;;;;;;;;;20.70;99.90;;;;;;5025760;28;19929;-66
2022/10/28 08:59:20;;;;;;;;;;;20.70;99.90;;;;;;5022655;28;19936;-62
2022/10/28 09:01:50;;;;;;;;;;;20.70;99.90;;;;;;5022879;28;19925;-59
2022/10/28 09:04:37;;;;;;;;;;;20.70;99.90;;;;;;5011543;28;19925;-62
2022/10/28 09:07:04;;;;;;;;;;;20.70;99.90;;;;;;5019227;28;19936;-63
2022/10/28 09:09:32;;;;;;;;;;;20.60;99.90;;;;;;5026452;28;19928;-56
2022/10/28 09:12:11;;;;;;;;;;;20.60;99.90;;;;;;5021875;28;20436;-59
2022/10/28 09:14:57;;;;;;;;;;;20.50;99.90;;;;;;5019639;28;19934;-63
2022/10/28 09:17:54;;;;;;;;;;;20.60;99.90;;;;;;5028191;28;19925;-63
2022/10/28 09:20:27;;;;;;;;;;;20.50;99.90;;;;;;5000431;28;19932;-65
2022/10/28 09:22:55;;;;;;;;;;;20.50;99.90;;;;;;5029333;28;19925;-63
2022/10/28 09:25:47;;;;;;;;;;;20.60;99.90;;;;;;5030686;28;19932;-61
2022/10/28 09:28:38;;;;;;;;;;;20.60;99.90;;;;;;5029139;28;19921;-64
2022/10/28 09:31:27;;;;;;;;;;;20.60;99.90;;;;;;5029594;28;19925;-64
2022/10/28 09:34:04;;;;;;;;;;;20.60;99.90;;;;;;5024070;28;19931;-62
2022/10/28 09:36:36;;;;;;;;;;;20.70;99.90;;;;;;5029230;28;19921;-65
2022/10/28 09:39:05;;;;;;;;;;;20.60;99.90;;;;;;5029843;28;19932;-62
2022/10/28 09:41:39;;;;;;;;;;;20.70;99.90;;;;;;5011520;28;19924;-63
2022/10/28 09:44:17;;;;;;;;;;;20.60;99.90;;;;;;5030116;28;19932;-64
2022/10/28 09:46:49;;;;;;;;;;;20.60;99.90;;;;;;5029141;28;19968;-63
2022/10/28 09:49:19;;;;;;;;;;;20.60;99.90;;;;;;5030184;28;20400;-62
2022/10/28 09:51:51;;;;;;;;;;;20.60;99.90;;;;;;5029408;28;19921;-63
2022/10/28 09:54:20;;;;;;;;;;;20.60;99.90;;;;;;5009995;28;20320;-64
2022/10/28 09:56:47;;;;;;;;;;;20.60;99.90;;;;;;5029892;28;19932;-63
2022/10/28 09:59:15;;;;;;;;;;;20.60;99.90;;;;;;5029239;28;19925;-64
2022/10/28 10:01:44;;;;;;;;;;;20.60;99.90;;;;;;5027739;28;19924;-63
2022/10/28 10:04:16;;;;;;;;;;;20.60;99.90;;;;;;5022582;28;20108;-61
2022/10/28 10:06:45;;;;;;;;;;;20.50;99.90;;;;;;5019294;28;19929;-62
2022/10/28 10:09:20;;;;;;;;;;;20.40;99.90;;;;;;5028379;28;19924;-62
2022/10/28 10:11:47;;;;;;;;;;;20.20;99.90;;;;;;5029274;28;19925;-62
2022/10/28 10:14:18;;;;;;;;;;;20.10;99.90;;;;;;5026472;28;20441;-60
2022/10/28 10:16:47;;;;;;;;;;;20.00;99.90;;;;;;5025714;28;19925;-62
2022/10/28 10:19:14;;;;;;;;;;;19.90;99.90;;;;;;5026300;28;19948;-59
2022/10/28 10:21:49;;;;;;;;;;;19.80;99.90;;;;;;5016944;28;20444;-59
2022/10/28 10:24:32;;;;;;;;;;;19.80;99.90;;;;;;5007133;28;20292;-62
2022/10/28 10:27:09;;;;;;;;;;;19.80;99.90;;;;;;5027771;28;19929;-62
2022/10/28 10:29:37;;;;;;;;;;;19.80;99.90;;;;;;5031445;28;19992;-59
2022/10/28 10:32:06;;;;;;;;;;;19.90;99.90;;;;;;5027400;28;20582;-63
2022/10/28 10:34:33;;;;;;;;;;;20.00;99.90;;;;;;5028042;28;20296;-62
2022/10/28 10:37:01;;;;;;;;;;;20.00;99.90;;;;;;5029221;28;19940;-63
2022/10/28 10:39:36;;;;;;;;;;;20.10;99.90;;;;;;4960449;28;19944;-63
2022/10/28 10:42:13;;;;;;;;;;;20.10;99.90;;;;;;5024730;28;19932;-61
2022/10/28 10:44:41;;;;;;;;;;;20.10;99.90;;;;;;5026082;28;19928;-62
2022/10/28 10:47:09;;;;;;;;;;;20.20;99.90;;;;;;5009580;28;19932;-62
2022/10/28 10:49:36;;;;;;;;;;;20.20;99.90;;;;;;5029265;28;19929;-60
2022/10/28 10:52:06;;;;;;;;;;;20.30;99.90;;;;;;5027857;28;19925;-60
2022/10/28 10:54:34;;;;;;;;;;;20.30;99.90;;;;;;5022916;28;20312;-61
2022/10/28 10:57:09;;;;;;;;;;;20.30;99.90;;;;;;5028264;28;19944;-60
2022/10/28 10:59:36;;;;;;;;;;;20.30;99.90;;;;;;5027363;28;19928;-61
2022/10/28 11:02:18;;;;;;;;;;;20.20;99.90;;;;;;5026646;28;20282;-62
2022/10/28 11:04:49;;;;;;;;;;;20.20;99.90;;;;;;5009511;28;19924;-62
2022/10/28 11:07:17;;;;;;;;;;;20.40;99.90;;;;;;5034438;28;19928;-63
2022/10/28 11:09:47;;;;;;;;;;;20.40;99.90;;;;;;5050476;28;20405;-64
2022/10/28 11:12:25;;;;;;;;;;;20.60;99.90;;;;;;5044854;28;19931;-63
2022/10/28 11:14:57;;;;;;;;;;;20.60;99.90;;;;;;5035937;28;19929;-64
2022/10/28 11:17:25;;;;;;;;;;;20.60;99.90;;;;;;5043117;28;19925;-63
2022/10/28 11:19:53;;;;;;;;;;;20.60;99.90;;;;;;5036253;28;19932;-62
2022/10/28 11:22:28;;;;;;;;;;;20.60;99.90;;;;;;5030079;28;19936;-69
2022/10/28 11:24:58;;;;;;;;;;;20.70;99.90;;;;;;5028403;28;19921;-68
2022/10/28 11:27:44;;;;;;;;;;;20.70;99.90;;;;;;5032088;28;20400;-64
2022/10/28 11:30:19;;;;;;;;;;;20.80;99.90;;;;;;5032362;28;19929;-65
2022/10/28 11:32:50;;;;;;;;;;;20.80;99.90;;;;;;5028665;28;19925;-65
2022/10/28 11:35:52;;;;;;;;;;;20.80;99.90;;;;;;5018507;28;19922;-64
2022/10/28 11:38:34;;;;;;;;;;;20.80;99.90;;;;;;5025048;28;20408;-62
2022/10/28 11:41:19;;;;;;;;;;;20.80;99.90;;;;;;5009713;28;19944;-64
2022/10/28 11:43:51;;;;;;;;;;;20.80;99.90;;;;;;5036804;28;19925;-66
2022/10/28 11:46:42;;;;;;;;;;;20.80;99.90;;;;;;5013743;28;19924;-64
2022/10/28 11:49:16;;;;;;;;;;;20.80;99.90;;;;;;5031441;28;19925;-66
2022/10/28 11:51:48;;;;;;;;;;;20.80;99.90;;;;;;5006507;28;19925;-67
2022/10/28 11:54:25;;;;;;;;;;;20.90;99.90;;;;;;5024600;28;20616;-64
2022/10/28 11:57:07;;;;;;;;;;;20.90;99.90;;;;;;5010791;28;19937;-65
2022/10/28 12:00:13;;;;;;;;;;;20.80;99.90;;;;;;5034070;28;20012;-66
2022/10/28 12:02:44;;;;;;;;;;;20.80;99.90;;;;;;5007903;28;20420;-68
2022/10/28 12:05:29;;;;;;;;;;;20.80;99.90;;;;;;5007888;28;20328;-66
2022/10/28 12:08:08;;;;;;;;;;;20.70;99.90;;;;;;5006796;28;20003;-64
2022/10/28 12:10:36;;;;;;;;;;;20.70;99.90;;;;;;4996419;28;19932;-65
2022/10/28 12:13:06;;;;;;;;;;;20.60;99.90;;;;;;4992624;28;20420;-63
2022/10/28 12:15:36;;;;;;;;;;;20.60;99.90;;;;;;4992867;28;19931;-65
2022/10/28 12:18:12;;;;;;;;;;;20.60;99.90;;;;;;5009163;28;19937;-66
2022/10/28 12:20:45;;;;;;;;;;;20.60;99.90;;;;;;4994027;28;19935;-63
2022/10/28 12:23:15;;;;;;;;;;;20.60;99.90;;;;;;4992057;28;19993;-65
2022/10/28 12:25:43;;;;;;;;;;;20.60;99.90;;;;;;4994685;28;19936;-66
2022/10/28 12:28:32;;;;;;;;;;;20.60;99.90;;;;;;4993568;28;19928;-64
2022/10/28 12:31:00;;;;;;;;;;;20.60;99.90;;;;;;5014192;28;19929;-66
2022/10/28 12:33:33;;;;;;;;;;;20.60;99.90;;;;;;4994205;28;19925;-65
2022/10/28 12:36:04;;;;;;;;;;;20.60;99.90;;;;;;5035772;28;19928;-65
2022/10/28 12:38:31;;;;;;;;;;;20.60;99.90;;;;;;5032532;28;19944;-65
2022/10/28 12:41:12;;;;;;;;;;;20.60;99.90;;;;;;5031416;28;19933;-66
2022/10/28 12:43:50;;;;;;;;;;;20.60;99.90;;;;;;5029678;28;19925;-63
2022/10/28 12:46:37;;;;;;;;;;;20.60;99.90;;;;;;5029621;28;19951;-66
2022/10/28 12:49:13;;;;;;;;;;;20.60;99.90;;;;;;5030102;28;19921;-65
2022/10/28 12:51:40;;;;;;;;;;;20.60;99.90;;;;;;5029791;28;19928;-64
2022/10/28 12:54:26;;;;;;;;;;;20.60;99.90;;;;;;5027889;28;19929;-64
2022/10/28 12:57:07;;;;;;;;;;;20.70;99.90;;;;;;5030494;28;19944;-64
2022/10/28 12:59:36;;;;;;;;;;;20.60;99.90;;;;;;5013848;28;19925;-65
2022/10/28 13:02:06;;;;;;;;;;;20.60;99.90;;;;;;5033628;28;20495;-65
2022/10/28 13:04:35;;;;;;;;;;;20.60;99.90;;;;;;5029303;28;19932;-64
2022/10/28 13:07:19;;;;;;;;;;;20.60;99.90;;;;;;5030944;28;20112;-65
2022/10/28 13:09:49;;;;;;;;;;;20.60;99.90;;;;;;5029966;28;19921;-64
2022/10/28 13:12:25;;;;;;;;;;;20.60;99.90;;;;;;5034566;28;19920;-65
2022/10/28 13:15:02;;;;;;;;;;;20.60;99.90;;;;;;5030235;28;19928;-65
2022/10/28 13:17:29;;;;;;;;;;;20.60;99.90;;;;;;5031846;28;19932;-65
2022/10/28 13:20:06;;;;;;;;;;;20.60;99.90;;;;;;5009387;28;19925;-64
2022/10/28 13:22:40;;;;;;;;;;;20.60;99.90;;;;;;5026442;28;19928;-64
2022/10/28 13:25:17;;;;;;;;;;;20.60;99.90;;;;;;5029465;28;20540;-63
2022/10/28 13:27:44;;;;;;;;;;;20.60;99.90;;;;;;5029760;28;20464;-65
2022/10/28 13:30:15;;;;;;;;;;;20.60;99.90;;;;;;5031113;28;19932;-66
2022/10/28 13:32:43;;;;;;;;;;;20.60;99.90;;;;;;5032815;28;19925;-64
2022/10/28 13:35:12;;;;;;;;;;;20.50;99.90;;;;;;5035499;28;19936;-65
2022/10/28 13:37:39;;;;;;;;;;;20.50;99.90;;;;;;5035316;28;19925;-65
2022/10/28 13:40:19;;;;;;;;;;;20.50;99.90;;;;;;5029939;28;19920;-66
2022/10/28 13:42:47;;;;;;;;;;;20.50;99.90;;;;;;5029439;28;19921;-65
2022/10/28 13:45:33;;;;;;;;;;;20.50;99.90;;;;;;5031371;28;20397;-65
2022/10/28 13:48:19;;;;;;;;;;;20.50;99.90;;;;;;5029769;28;19921;-64
2022/10/28 13:50:46;;;;;;;;;;;20.50;99.90;;;;;;5025734;28;19921;-65
2022/10/28 13:53:22;;;;;;;;;;;20.50;99.90;;;;;;5002796;28;19932;-65
2022/10/28 13:55:54;;;;;;;;;;;20.50;99.90;;;;;;5028952;28;19925;-64
2022/10/28 13:58:23;;;;;;;;;;;20.50;99.90;;;;;;5028650;28;19928;-64
2022/10/28 14:00:50;;;;;;;;;;;20.50;99.90;;;;;;5029066;28;19936;-65
2022/10/28 14:03:26;;;;;;;;;;;20.50;99.90;;;;;;5029564;28;19921;-65
2022/10/28 14:05:56;;;;;;;;;;;20.50;99.90;;;;;;5028728;28;19925;-65
2022/10/28 14:08:23;;;;;;;;;;;20.50;99.90;;;;;;5034033;28;19931;-67
2022/10/28 14:10:59;;;;;;;;;;;20.50;99.90;;;;;;5028706;28;19921;-65
2022/10/28 14:13:26;;;;;;;;;;;20.50;99.90;;;;;;5029506;28;19925;-65
2022/10/28 14:16:29;;;;;;;;;;;20.60;99.90;;;;;;5029194;28;19924;-64
2022/10/28 14:19:01;;;;;;;;;;;20.60;99.90;;;;;;4979115;28;19926;-63
2022/10/28 14:21:39;;;;;;;;;;;20.60;99.90;;;;;;5017554;28;19932;-64
2022/10/28 14:24:08;;;;;;;;;;;20.60;99.90;;;;;;5027813;28;19932;-63
2022/10/28 14:26:53;;;;;;;;;;;20.60;99.90;;;;;;5024448;28;19928;-64
2022/10/28 14:29:27;;;;;;;;;;;20.60;99.90;;;;;;5030340;28;20291;-66
2022/10/28 14:31:54;;;;;;;;;;;20.60;99.90;;;;;;5032020;28;19921;-65
2022/10/28 14:34:27;;;;;;;;;;;20.60;99.90;;;;;;5036252;28;20296;-64
2022/10/28 14:37:13;;;;;;;;;;;20.60;99.90;;;;;;5035558;28;19929;-66